createdAt,value
2023-04-08T00:02:19.034Z,101054.00
2023-04-08T00:04:47.160Z,101048.00
2023-04-08T00:07:15.179Z,101040.00
2023-04-08T00:09:43.324Z,101048.00
2023-04-08T00:12:11.532Z,101051.00
2023-04-08T00:14:41.770Z,101045.00
2023-04-08T00:17:10.220Z,101045.00
2023-04-08T00:57:40.886Z,101024.00
2023-04-08T01:00:18.205Z,101028.00
2023-04-08T01:02:48.582Z,101037.00
2023-04-08T01:05:57.098Z,101035.00
2023-04-08T01:08:29.967Z,101035.00
2023-04-08T01:11:02.608Z,101038.00
2023-04-08T01:13:36.433Z,101030.00
2023-04-08T01:16:05.497Z,101030.00
2023-04-08T01:18:35.531Z,101038.00
2023-04-08T01:21:05.134Z,101033.00
2023-04-08T01:23:46.563Z,101038.00
2023-04-08T01:26:24.046Z,101032.00
2023-04-08T01:28:58.439Z,101029.00
2023-04-08T01:31:27.339Z,101027.00
2023-04-08T01:33:56.830Z,101038.00
2023-04-08T01:36:26.049Z,101026.00
2023-04-08T01:38:56.652Z,101036.00
2023-04-08T01:41:28.256Z,101039.00
2023-04-08T01:43:57.121Z,101039.00
2023-04-08T01:46:25.648Z,101036.00
2023-04-08T01:48:54.400Z,101033.00
2023-04-08T01:51:26.882Z,101035.00
2023-04-08T01:53:58.996Z,101047.00
2023-04-08T01:56:32.108Z,101038.00
2023-04-08T01:59:02.278Z,101039.00
2023-04-08T02:01:31.197Z,101034.00
2023-04-08T02:04:00.974Z,101032.00
2023-04-08T02:06:29.911Z,101032.00
2023-04-08T02:08:58.554Z,101037.00
2023-04-08T02:11:29.007Z,101039.00
2023-04-08T02:13:59.147Z,101049.00
2023-04-08T02:16:50.230Z,101050.00
2023-04-08T02:19:32.308Z,101048.00
2023-04-08T02:22:25.004Z,101043.00
2023-04-08T02:24:53.279Z,101040.00
2023-04-08T02:27:22.043Z,101042.00
2023-04-08T02:29:51.972Z,101042.00
2023-04-08T02:32:21.292Z,101051.00
2023-04-08T02:34:50.234Z,101046.00
2023-04-08T02:37:18.524Z,101046.00
2023-04-08T02:39:46.721Z,101043.00
2023-04-08T02:42:15.279Z,101054.00
2023-04-08T02:44:43.595Z,101046.00
2023-04-08T02:47:11.964Z,101052.00
2023-04-08T02:49:40.362Z,101045.00
2023-04-08T02:52:08.727Z,101049.00
2023-04-08T02:54:37.110Z,101054.00
2023-04-08T02:57:05.827Z,101062.00
2023-04-08T02:59:38.075Z,101051.00
2023-04-08T03:02:06.592Z,101050.00
2023-04-08T03:04:35.373Z,101065.00
2023-04-08T03:07:03.623Z,101058.00
2023-04-08T03:09:31.781Z,101064.00
2023-04-08T03:12:00.027Z,101068.00
2023-04-08T03:14:29.383Z,101060.00
2023-04-08T03:17:00.865Z,101064.00
2023-04-08T03:19:29.222Z,101057.00
2023-04-08T03:21:58.010Z,101068.00
2023-04-08T03:24:29.100Z,101061.00
2023-04-08T03:26:57.646Z,101066.00
2023-04-08T03:29:26.339Z,101070.00
2023-04-08T03:31:54.529Z,101057.00
2023-04-08T03:34:22.709Z,101061.00
2023-04-08T03:36:51.314Z,101058.00
2023-04-08T03:39:20.417Z,101065.00
2023-04-08T03:41:49.312Z,101066.00
2023-04-08T03:44:17.693Z,101070.00
2023-04-08T03:46:46.368Z,101070.00
2023-04-08T03:49:14.717Z,101063.00
2023-04-08T03:51:48.546Z,101070.00
2023-04-08T03:54:22.867Z,101068.00
2023-04-08T03:56:51.764Z,101067.00
2023-04-08T03:59:20.133Z,101060.00
2023-04-08T04:06:01.887Z,101076.00
2023-04-08T04:08:29.871Z,101076.00
2023-04-08T04:11:00.846Z,101086.00
2023-04-08T04:13:32.267Z,101090.00
2023-04-08T04:16:01.074Z,101099.00
2023-04-08T04:18:32.089Z,101100.00
2023-04-08T04:21:00.283Z,101099.00
2023-04-08T04:23:28.732Z,101093.00
2023-04-08T04:25:57.228Z,101086.00
2023-04-08T04:28:26.468Z,101099.00
2023-04-08T04:30:56.553Z,101101.00
2023-04-08T04:33:28.038Z,101102.00
2023-04-08T04:36:00.572Z,101101.00
2023-04-08T04:38:31.980Z,101105.00
2023-04-08T04:41:00.139Z,101107.00
2023-04-08T04:43:29.008Z,101112.00
2023-04-08T04:46:00.038Z,101111.00
2023-04-08T04:48:28.363Z,101104.00
2023-04-08T04:51:01.861Z,101111.00
2023-04-08T04:53:30.777Z,101119.00
2023-04-08T04:55:59.343Z,101123.00
2023-04-08T04:58:31.098Z,101125.00
2023-04-08T05:00:59.145Z,101128.00
2023-04-08T05:03:27.857Z,101124.00
2023-04-08T05:06:02.453Z,101125.00
2023-04-08T05:08:31.627Z,101127.00
2023-04-08T05:11:02.482Z,101128.00
2023-04-08T05:13:33.508Z,101125.00
2023-04-08T05:16:01.838Z,101123.00
2023-04-08T05:18:32.908Z,101121.00
2023-04-08T05:21:04.426Z,101136.00
2023-04-08T05:23:39.257Z,101137.00
2023-04-08T05:26:08.626Z,101132.00
2023-04-08T05:28:37.748Z,101134.00
2023-04-08T05:31:05.934Z,101131.00
2023-04-08T05:33:34.756Z,101142.00
2023-04-08T05:36:03.127Z,101146.00
2023-04-08T05:38:32.574Z,101141.00
2023-04-08T05:41:01.280Z,101138.00
2023-04-08T05:43:35.875Z,101146.00
2023-04-08T05:46:10.753Z,101146.00
2023-04-08T05:48:39.131Z,101156.00
2023-04-08T05:51:15.186Z,101164.00
2023-04-08T05:53:56.450Z,101167.00
2023-04-08T05:56:25.070Z,101158.00
2023-04-08T05:58:53.444Z,101156.00
2023-04-08T06:01:26.629Z,101157.00
2023-04-08T06:03:56.940Z,101155.00
2023-04-08T06:06:30.524Z,101163.00
2023-04-08T06:09:03.012Z,101161.00
2023-04-08T06:11:31.894Z,101167.00
2023-04-08T06:14:03.154Z,101169.00
2023-04-08T06:16:50.299Z,101169.00
2023-04-08T06:19:21.826Z,101185.00
2023-04-08T06:21:52.153Z,101192.00
2023-04-08T06:24:20.320Z,101188.00
2023-04-08T06:26:48.595Z,101184.00
2023-04-08T06:29:19.140Z,101183.00
2023-04-08T06:31:47.647Z,101188.00
2023-04-08T06:34:16.418Z,101186.00
2023-04-08T06:36:45.496Z,101192.00
2023-04-08T06:39:20.153Z,101192.00
2023-04-08T06:41:48.591Z,101184.00
2023-04-08T06:44:39.522Z,101193.00
2023-04-08T06:47:07.904Z,101197.00
2023-04-08T06:49:36.666Z,101198.00
2023-04-08T06:52:04.952Z,101202.00
2023-04-08T06:54:33.260Z,101203.00
2023-04-08T06:57:02.074Z,101205.00
2023-04-08T06:59:33.517Z,101211.00
2023-04-08T07:02:02.040Z,101214.00
2023-04-08T07:04:30.582Z,101216.00
2023-04-08T07:06:58.939Z,101209.00
2023-04-08T07:09:27.076Z,101213.00
2023-04-08T07:11:56.102Z,101218.00
2023-04-08T07:14:24.286Z,101221.00
2023-04-08T07:16:52.638Z,101221.00
2023-04-08T07:19:21.387Z,101215.00
2023-04-08T07:21:49.763Z,101216.00
2023-04-08T07:24:21.333Z,101221.00
2023-04-08T07:26:49.914Z,101232.00
2023-04-08T07:29:18.391Z,101231.00
2023-04-08T07:31:46.592Z,101232.00
2023-04-08T07:34:16.390Z,101231.00
2023-04-08T07:36:44.893Z,101236.00
2023-04-08T07:39:13.159Z,101249.00
2023-04-08T07:41:41.460Z,101234.00
2023-04-08T07:44:15.010Z,101232.00
2023-04-08T07:46:46.078Z,101241.00
2023-04-08T07:49:14.394Z,101245.00
2023-04-08T07:51:42.849Z,101252.00
2023-04-08T07:54:12.963Z,101250.00
2023-04-08T07:56:48.225Z,101254.00
2023-04-08T07:59:16.231Z,101247.00
2023-04-08T08:01:44.530Z,101252.00
2023-04-08T08:04:14.253Z,101254.00
2023-04-08T08:06:42.569Z,101262.00
2023-04-08T08:13:21.675Z,101269.00
2023-04-08T08:15:57.690Z,101275.00
2023-04-08T08:22:13.551Z,101280.00
2023-04-08T08:24:41.457Z,101279.00
2023-04-08T08:27:11.560Z,101285.00
2023-04-08T08:29:39.516Z,101280.00
2023-04-08T08:32:07.412Z,101283.00
2023-04-08T08:34:35.288Z,101282.00
2023-04-08T08:37:03.295Z,101281.00
2023-04-08T08:39:31.320Z,101270.00
2023-04-08T08:41:59.529Z,101263.00
2023-04-08T08:44:27.552Z,101265.00
2023-04-08T08:46:55.548Z,101281.00
2023-04-08T08:49:24.424Z,101288.00
2023-04-08T08:51:53.976Z,101282.00
2023-04-08T08:54:21.930Z,101277.00
2023-04-08T08:56:50.578Z,101286.00
2023-04-08T08:59:18.613Z,101292.00
2023-04-08T09:01:49.678Z,101303.00
2023-04-08T09:04:23.057Z,101302.00
2023-04-08T09:07:08.731Z,101304.00
2023-04-08T09:10:03.079Z,101318.00
2023-04-08T09:12:32.062Z,101312.00
2023-04-08T09:15:08.637Z,101314.00
2023-04-08T09:17:38.341Z,101319.00
2023-04-08T09:20:33.663Z,101314.00
2023-04-08T09:23:02.679Z,101312.00
2023-04-08T09:25:32.818Z,101318.00
2023-04-08T09:28:02.997Z,101318.00
2023-04-08T09:30:33.571Z,101321.00
2023-04-08T09:33:01.744Z,101323.00
2023-04-08T09:35:29.883Z,101322.00
2023-04-08T09:37:58.745Z,101329.00
2023-04-08T09:40:28.635Z,101323.00
2023-04-08T09:42:57.102Z,101327.00
2023-04-08T09:45:26.063Z,101334.00
2023-04-08T09:48:10.159Z,101329.00
2023-04-08T09:50:43.509Z,101329.00
2023-04-08T09:53:16.724Z,101349.00
2023-04-08T09:55:50.141Z,101339.00
2023-04-08T09:58:23.010Z,101348.00
2023-04-08T10:00:52.187Z,101337.00
2023-04-08T10:03:41.147Z,101337.00
2023-04-08T10:06:10.679Z,101341.00
2023-04-08T10:08:42.325Z,101341.00
2023-04-08T10:11:10.639Z,101344.00
2023-04-08T10:13:41.119Z,101347.00
2023-04-08T10:16:20.750Z,101338.00
2023-04-08T10:19:07.567Z,101344.00
2023-04-08T10:21:40.420Z,101350.00
2023-04-08T10:24:11.366Z,101358.00
2023-04-08T10:26:44.368Z,101365.00
2023-04-08T10:29:18.381Z,101363.00
2023-04-08T10:31:57.744Z,101365.00
2023-04-08T10:34:27.073Z,101371.00
2023-04-08T10:36:57.121Z,101377.00
2023-04-08T10:39:27.406Z,101373.00
2023-04-08T10:41:56.592Z,101379.00
2023-04-08T10:44:27.649Z,101375.00
2023-04-08T10:46:56.133Z,101368.00
2023-04-08T10:49:24.556Z,101368.00
2023-04-08T10:51:52.739Z,101368.00
2023-04-08T10:54:20.716Z,101366.00
2023-04-08T10:56:54.033Z,101356.00
2023-04-08T10:59:35.591Z,101357.00
2023-04-08T11:02:03.595Z,101355.00
2023-04-08T11:04:56.541Z,101348.00
2023-04-08T11:07:27.328Z,101357.00
2023-04-08T11:09:56.100Z,101360.00
2023-04-08T11:12:24.185Z,101352.00
2023-04-08T11:14:56.429Z,101357.00
2023-04-08T11:17:24.679Z,101368.00
2023-04-08T11:19:56.869Z,101362.00
2023-04-08T11:22:24.991Z,101362.00
2023-04-08T11:24:53.583Z,101361.00
2023-04-08T11:27:23.662Z,101364.00
2023-04-08T11:29:52.153Z,101368.00
2023-04-08T11:32:21.551Z,101370.00
2023-04-08T11:34:49.877Z,101366.00
2023-04-08T11:37:18.601Z,101374.00
2023-04-08T11:39:52.955Z,101377.00
2023-04-08T11:42:33.842Z,101372.00
2023-04-08T11:45:01.814Z,101370.00
2023-04-08T11:47:33.951Z,101374.00
2023-04-08T11:50:02.870Z,101364.00
2023-04-08T11:52:50.521Z,101372.00
2023-04-08T11:55:32.333Z,101371.00
2023-04-08T11:58:04.571Z,101367.00
2023-04-08T12:00:33.433Z,101355.00
2023-04-08T12:03:01.615Z,101365.00
2023-04-08T12:05:29.728Z,101369.00
2023-04-08T12:08:01.169Z,101366.00
2023-04-08T12:10:29.098Z,101368.00
2023-04-08T12:12:59.027Z,101379.00
2023-04-08T12:15:27.983Z,101376.00
2023-04-08T12:17:56.169Z,101383.00
2023-04-08T12:20:24.327Z,101386.00
2023-04-08T12:22:53.927Z,101380.00
2023-04-08T12:25:22.082Z,101388.00
2023-04-08T12:27:49.957Z,101383.00
2023-04-08T12:30:18.405Z,101378.00
2023-04-08T12:32:49.555Z,101391.00
2023-04-08T12:35:21.217Z,101388.00
2023-04-08T12:37:49.488Z,101388.00
2023-04-08T12:40:21.438Z,101387.00
2023-04-08T12:42:49.457Z,101392.00
2023-04-08T12:45:17.590Z,101381.00
2023-04-08T12:47:47.879Z,101381.00
2023-04-08T12:50:23.874Z,101377.00
2023-04-08T12:52:52.158Z,101368.00
2023-04-08T12:55:29.717Z,101360.00
2023-04-08T12:57:57.992Z,101366.00
2023-04-08T13:03:16.243Z,101373.00
2023-04-08T13:05:47.072Z,101378.00
2023-04-08T13:08:17.963Z,101383.00
2023-04-08T13:10:46.519Z,101373.00
2023-04-08T13:13:16.457Z,101382.00
2023-04-08T13:15:46.858Z,101383.00
2023-04-08T13:18:24.152Z,101381.00
2023-04-08T13:20:52.698Z,101388.00
2023-04-08T13:23:22.713Z,101391.00
2023-04-08T13:25:50.769Z,101388.00
2023-04-08T13:28:21.338Z,101384.00
2023-04-08T13:30:49.736Z,101390.00
2023-04-08T13:33:22.713Z,101394.00
2023-04-08T13:36:00.009Z,101382.00
2023-04-08T13:38:28.162Z,101391.00
2023-04-08T13:40:59.523Z,101379.00
2023-04-08T13:43:28.043Z,101375.00
2023-04-08T13:45:57.751Z,101380.00
2023-04-08T13:48:27.836Z,101376.00
2023-04-08T13:50:58.220Z,101381.00
2023-04-08T13:53:26.359Z,101376.00
2023-04-08T13:55:59.060Z,101380.00
2023-04-08T13:58:27.481Z,101377.00
2023-04-08T14:00:58.616Z,101376.00
2023-04-08T14:03:26.793Z,101375.00
2023-04-08T14:05:54.996Z,101375.00
2023-04-08T14:08:26.357Z,101376.00
2023-04-08T14:10:58.086Z,101375.00
2023-04-08T14:13:28.710Z,101383.00
2023-04-08T14:15:58.642Z,101373.00
2023-04-08T14:18:26.791Z,101382.00
2023-04-08T14:21:00.118Z,101380.00
2023-04-08T14:23:28.334Z,101379.00
2023-04-08T14:26:01.770Z,101387.00
2023-04-08T14:28:29.893Z,101388.00
2023-04-08T14:30:57.936Z,101390.00
2023-04-08T14:33:27.106Z,101396.00
2023-04-08T14:35:55.904Z,101397.00
2023-04-08T14:38:24.468Z,101391.00
2023-04-08T14:40:52.657Z,101402.00
2023-04-08T14:43:23.655Z,101399.00
2023-04-08T14:45:55.183Z,101405.00
2023-04-08T14:48:27.218Z,101399.00
2023-04-08T14:50:55.545Z,101401.00
2023-04-08T14:53:24.274Z,101408.00
2023-04-08T14:55:52.640Z,101406.00
2023-04-08T14:58:21.066Z,101404.00
2023-04-08T15:00:49.352Z,101401.00
2023-04-08T15:03:21.754Z,101403.00
2023-04-08T15:06:07.772Z,101396.00
2023-04-08T15:08:35.917Z,101402.00
2023-04-08T15:11:17.550Z,101395.00
2023-04-08T15:14:36.608Z,101399.00
2023-04-08T15:17:29.019Z,101401.00
2023-04-08T15:20:01.033Z,101403.00
2023-04-08T15:22:57.343Z,101396.00
2023-04-08T15:26:01.826Z,101402.00
2023-04-08T15:28:31.027Z,101403.00
2023-04-08T15:31:08.989Z,101389.00
2023-04-08T15:33:51.478Z,101399.00
2023-04-08T15:36:38.032Z,101404.00
2023-04-08T15:42:01.836Z,101406.00
2023-04-08T15:44:37.005Z,101409.00
2023-04-08T15:47:05.672Z,101408.00
2023-04-08T15:49:36.060Z,101406.00
2023-04-08T15:55:42.132Z,101407.00
2023-04-08T16:01:28.351Z,101419.00
2023-04-08T16:04:02.959Z,101415.00
2023-04-08T16:06:31.897Z,101421.00
2023-04-08T16:09:04.672Z,101427.00
2023-04-08T16:11:34.854Z,101424.00
2023-04-08T16:14:14.774Z,101423.00
2023-04-08T16:17:23.562Z,101422.00
2023-04-08T16:20:01.628Z,101422.00
2023-04-08T16:22:30.619Z,101423.00
2023-04-08T16:25:02.795Z,101433.00
2023-04-08T16:27:34.476Z,101437.00
2023-04-08T16:30:04.233Z,101431.00
2023-04-08T16:32:33.729Z,101423.00
2023-04-08T16:35:04.942Z,101427.00
2023-04-08T16:37:37.704Z,101427.00
2023-04-08T16:43:10.893Z,101432.00
2023-04-08T16:46:28.648Z,101425.00
2023-04-08T16:49:02.458Z,101436.00
2023-04-08T16:51:31.349Z,101436.00
2023-04-08T16:54:00.937Z,101437.00
2023-04-08T16:56:49.475Z,101433.00
2023-04-08T16:59:49.099Z,101430.00
2023-04-08T17:02:32.022Z,101440.00
2023-04-08T17:08:41.129Z,101442.00
2023-04-08T17:11:32.438Z,101448.00
2023-04-08T17:14:43.548Z,101446.00
2023-04-08T17:20:37.945Z,101454.00
2023-04-08T17:23:09.648Z,101452.00
2023-04-08T17:25:41.153Z,101450.00
2023-04-08T17:28:09.830Z,101455.00
2023-04-08T17:30:40.468Z,101460.00
2023-04-08T17:33:11.410Z,101461.00
2023-04-08T17:39:31.437Z,101465.00
2023-04-08T17:42:05.447Z,101469.00
2023-04-08T17:44:43.844Z,101459.00
2023-04-08T17:47:12.597Z,101465.00
2023-04-08T17:49:41.235Z,101466.00
2023-04-08T17:52:09.728Z,101459.00
2023-04-08T17:54:38.892Z,101461.00
2023-04-08T17:57:10.671Z,101459.00
2023-04-08T17:59:39.025Z,101455.00
2023-04-08T18:02:08.099Z,101459.00
2023-04-08T18:04:37.980Z,101460.00
2023-04-08T18:07:06.246Z,101462.00
2023-04-08T18:09:35.155Z,101463.00
2023-04-08T18:12:09.981Z,101463.00
2023-04-08T18:14:38.804Z,101467.00
2023-04-08T18:17:07.373Z,101476.00
2023-04-08T18:19:37.151Z,101473.00
2023-04-08T18:22:05.433Z,101480.00
2023-04-08T18:24:36.186Z,101483.00
2023-04-08T18:27:13.687Z,101485.00
2023-04-08T18:29:44.856Z,101484.00
2023-04-08T18:32:20.987Z,101487.00
2023-04-08T18:35:02.192Z,101494.00
2023-04-08T18:37:31.343Z,101492.00
2023-04-08T18:40:00.252Z,101493.00
2023-04-08T18:42:31.368Z,101500.00
2023-04-08T18:45:02.646Z,101492.00
2023-04-08T18:47:32.174Z,101496.00
2023-04-08T18:50:03.898Z,101496.00
2023-04-08T18:52:32.650Z,101498.00
2023-04-08T18:55:03.667Z,101500.00
2023-04-08T19:00:59.237Z,101503.00
2023-04-08T19:03:28.065Z,101500.00
2023-04-08T19:06:08.396Z,101500.00
2023-04-08T19:08:52.544Z,101508.00
2023-04-08T19:11:43.644Z,101513.00
2023-04-08T19:14:13.052Z,101510.00
2023-04-08T19:16:45.021Z,101523.00
2023-04-08T19:19:27.315Z,101520.00
2023-04-08T19:22:27.418Z,101530.00
2023-04-08T19:25:01.437Z,101532.00
2023-04-08T19:28:04.025Z,101526.00
2023-04-08T19:30:53.422Z,101521.00
2023-04-08T19:33:32.987Z,101526.00
2023-04-08T19:36:19.903Z,101529.00
2023-04-08T19:38:57.518Z,101532.00
2023-04-08T19:41:46.115Z,101533.00
2023-04-08T19:44:14.414Z,101532.00
2023-04-08T19:46:43.312Z,101536.00
2023-04-08T19:49:14.664Z,101532.00
2023-04-08T19:51:43.128Z,101539.00
2023-04-08T19:54:14.397Z,101539.00
2023-04-08T19:59:36.006Z,101548.00
2023-04-08T20:02:10.032Z,101546.00
2023-04-08T20:04:38.448Z,101542.00
2023-04-08T20:07:14.258Z,101543.00
2023-04-08T20:09:42.739Z,101540.00
2023-04-08T20:12:11.143Z,101541.00
2023-04-08T20:15:28.028Z,101549.00
2023-04-08T20:17:42.969Z,101541.00
2023-04-08T20:20:14.854Z,101537.00
2023-04-08T20:22:44.110Z,101539.00
2023-04-08T20:25:14.964Z,101546.00
2023-04-08T20:27:49.445Z,101540.00
2023-04-08T20:30:36.571Z,101547.00
2023-04-08T20:36:13.374Z,101549.00
2023-04-08T20:38:47.909Z,101549.00
2023-04-08T20:41:29.151Z,101553.00
2023-04-08T20:44:54.030Z,101553.00
2023-04-08T20:47:51.089Z,101553.00
2023-04-08T20:50:22.347Z,101551.00
2023-04-08T20:53:10.753Z,101554.00
2023-04-08T20:55:43.063Z,101547.00
2023-04-08T20:58:13.874Z,101547.00
2023-04-08T21:03:47.097Z,101542.00
2023-04-08T21:06:39.701Z,101543.00
2023-04-08T21:09:17.574Z,101545.00
2023-04-08T21:11:49.055Z,101545.00
2023-04-08T21:14:46.915Z,101540.00
2023-04-08T21:17:18.037Z,101540.00
2023-04-08T21:20:11.298Z,101534.00
2023-04-08T21:22:41.703Z,101539.00
2023-04-08T21:28:25.416Z,101537.00
2023-04-08T21:31:18.253Z,101531.00
2023-04-08T21:33:46.990Z,101532.00
2023-04-08T21:36:21.942Z,101532.00
2023-04-08T21:39:07.133Z,101538.00
2023-04-08T21:41:44.969Z,101544.00
2023-04-08T21:44:16.681Z,101548.00
2023-04-08T21:47:07.956Z,101551.00
2023-04-08T21:49:40.277Z,101551.00
2023-04-08T21:52:30.915Z,101561.00
2023-04-08T21:55:31.859Z,101563.00
2023-04-08T21:58:13.162Z,101573.00
2023-04-08T22:01:18.046Z,101567.00
2023-04-08T22:03:47.202Z,101562.00
2023-04-08T22:06:49.901Z,101569.00
2023-04-08T22:09:31.620Z,101576.00
2023-04-08T22:12:12.713Z,101567.00
2023-04-08T22:18:12.329Z,101575.00
2023-04-08T22:23:45.120Z,101572.00
2023-04-08T22:26:38.858Z,101573.00
2023-04-08T22:29:37.749Z,101568.00
2023-04-08T22:32:10.480Z,101564.00
2023-04-08T22:34:44.207Z,101568.00
2023-04-08T22:37:12.697Z,101569.00
2023-04-08T22:39:41.056Z,101572.00
2023-04-08T22:42:13.354Z,101565.00
2023-04-08T22:44:44.812Z,101570.00
2023-04-08T22:47:17.472Z,101568.00
2023-04-08T22:49:48.650Z,101565.00
2023-04-08T22:52:19.700Z,101570.00
2023-04-08T23:01:14.489Z,101559.00
2023-04-08T23:03:49.576Z,101563.00
2023-04-08T23:06:30.567Z,101559.00
2023-04-08T23:09:44.219Z,101555.00
2023-04-08T23:15:20.950Z,101551.00
2023-04-08T23:17:50.029Z,101542.00
2023-04-08T23:20:22.091Z,101548.00
2023-04-08T23:26:13.256Z,101544.00
2023-04-08T23:28:51.035Z,101539.00
2023-04-08T23:31:49.237Z,101533.00
2023-04-08T23:34:46.395Z,101536.00
2023-04-08T23:37:15.029Z,101537.00
2023-04-08T23:40:14.937Z,101534.00
2023-04-08T23:42:51.450Z,101538.00
2023-04-08T23:45:20.152Z,101542.00
2023-04-08T23:47:56.275Z,101544.00
2023-04-08T23:50:42.608Z,101544.00
2023-04-08T23:53:20.088Z,101545.00
2023-04-08T23:56:10.548Z,101540.00
2023-04-08T23:58:41.809Z,101537.00
